sensor_id;sensor_type;location;lat;lon;timestamp;temperature;humidity
14521;DHT22;7347;50.844;4.490;2022-11-15T08:25:06;11.20;99.90
14521;DHT22;7347;50.844;4.490;2022-11-15T08:27:33;11.20;99.90
14521;DHT22;7347;50.844;4.490;2022-11-15T08:29:59;11.20;99.90
14521;DHT22;7347;50.844;4.490;2022-11-15T08:32:27;11.20;99.90
14521;DHT22;7347;50.844;4.490;2022-11-15T08:34:53;11.20;99.90
14521;DHT22;7347;50.844;4.490;2022-11-15T08:37:20;11.20;99.90
14521;DHT22;7347;50.844;4.490;2022-11-15T08:39:47;11.30;99.90
14521;DHT22;7347;50.844;4.490;2022-11-15T08:42:15;11.20;99.90
14521;DHT22;7347;50.844;4.490;2022-11-15T08:44:42;11.10;99.90
14521;DHT22;7347;50.844;4.490;2022-11-15T08:47:11;11.10;99.90
14521;DHT22;7347;50.844;4.490;2022-11-15T08:49:38;11.20;99.90
14521;DHT22;7347;50.844;4.490;2022-11-15T08:52:04;11.20;99.90
14521;DHT22;7347;50.844;4.490;2022-11-15T08:54:31;11.10;99.90
14521;DHT22;7347;50.844;4.490;2022-11-15T08:56:58;11.20;99.90
14521;DHT22;7347;50.844;4.490;2022-11-15T08:59:26;11.20;99.90
14521;DHT22;7347;50.844;4.490;2022-11-15T09:01:53;11.20;99.90
14521;DHT22;7347;50.844;4.490;2022-11-15T09:04:20;11.30;99.90
14521;DHT22;7347;50.844;4.490;2022-11-15T09:06:47;11.20;99.90
14521;DHT22;7347;50.844;4.490;2022-11-15T09:09:14;11.10;99.90
14521;DHT22;7347;50.844;4.490;2022-11-15T09:11:41;11.00;99.90
14521;DHT22;7347;50.844;4.490;2022-11-15T09:14:10;11.10;99.90
14521;DHT22;7347;50.844;4.490;2022-11-15T09:16:38;11.10;99.90
14521;DHT22;7347;50.844;4.490;2022-11-15T09:19:05;11.20;99.90
14521;DHT22;7347;50.844;4.490;2022-11-15T09:21:32;11.20;99.90
14521;DHT22;7347;50.844;4.490;2022-11-15T09:23:59;11.30;99.90
14521;DHT22;7347;50.844;4.490;2022-11-15T09:26:25;11.40;99.90
14521;DHT22;7347;50.844;4.490;2022-11-15T09:28:52;11.50;99.90
14521;DHT22;7347;50.844;4.490;2022-11-15T09:31:19;11.40;99.90
14521;DHT22;7347;50.844;4.490;2022-11-15T09:33:47;11.40;99.90
14521;DHT22;7347;50.844;4.490;2022-11-15T09:36:14;11.50;99.90
14521;DHT22;7347;50.844;4.490;2022-11-15T09:38:42;11.60;99.90
14521;DHT22;7347;50.844;4.490;2022-11-15T09:44:12;11.60;99.90
14521;DHT22;7347;50.844;4.490;2022-11-15T09:46:49;11.70;99.90
14521;DHT22;7347;50.844;4.490;2022-11-15T09:49:22;11.60;99.90
14521;DHT22;7347;50.844;4.490;2022-11-15T09:51:50;11.60;99.90
14521;DHT22;7347;50.844;4.490;2022-11-15T09:54:25;11.70;99.90
14521;DHT22;7347;50.844;4.490;2022-11-15T09:56:53;11.70;99.90
14521;DHT22;7347;50.844;4.490;2022-11-15T10:02:31;11.70;99.90
14521;DHT22;7347;50.844;4.490;2022-11-15T10:05:01;11.70;99.90
14521;DHT22;7347;50.844;4.490;2022-11-15T10:07:34;11.70;99.90
14521;DHT22;7347;50.844;4.490;2022-11-15T10:10:13;11.80;99.90
14521;DHT22;7347;50.844;4.490;2022-11-15T10:12:45;11.90;99.90
14521;DHT22;7347;50.844;4.490;2022-11-15T10:15:15;11.80;99.90
14521;DHT22;7347;50.844;4.490;2022-11-15T10:18:09;11.80;99.90
14521;DHT22;7347;50.844;4.490;2022-11-15T10:20:47;11.80;99.90
14521;DHT22;7347;50.844;4.490;2022-11-15T10:23:16;11.80;99.90
14521;DHT22;7347;50.844;4.490;2022-11-15T10:25:43;11.80;99.90
14521;DHT22;7347;50.844;4.490;2022-11-15T10:28:21;11.90;99.90
14521;DHT22;7347;50.844;4.490;2022-11-15T10:30:51;11.90;99.90
14521;DHT22;7347;50.844;4.490;2022-11-15T10:33:25;12.00;99.90
14521;DHT22;7347;50.844;4.490;2022-11-15T10:36:27;12.20;99.90
14521;DHT22;7347;50.844;4.490;2022-11-15T10:38:55;12.20;99.90
14521;DHT22;7347;50.844;4.490;2022-11-15T10:41:30;12.20;99.90
14521;DHT22;7347;50.844;4.490;2022-11-15T10:44:25;12.30;99.90
14521;DHT22;7347;50.844;4.490;2022-11-15T10:47:26;12.40;99.90
14521;DHT22;7347;50.844;4.490;2022-11-15T10:49:55;12.70;99.90
14521;DHT22;7347;50.844;4.490;2022-11-15T10:52:24;12.70;99.90
14521;DHT22;7347;50.844;4.490;2022-11-15T10:54:55;12.60;99.90
14521;DHT22;7347;50.844;4.490;2022-11-15T10:57:24;12.50;99.90
14521;DHT22;7347;50.844;4.490;2022-11-15T10:59:56;12.60;99.90
14521;DHT22;7347;50.844;4.490;2022-11-15T11:02:28;12.70;99.90
14521;DHT22;7347;50.844;4.490;2022-11-15T11:04:56;12.70;99.90
14521;DHT22;7347;50.844;4.490;2022-11-15T11:07:26;12.80;99.90
14521;DHT22;7347;50.844;4.490;2022-11-15T11:09:58;12.90;99.90
14521;DHT22;7347;50.844;4.490;2022-11-15T11:12:30;12.80;99.90
14521;DHT22;7347;50.844;4.490;2022-11-15T11:14:59;12.90;99.90
14521;DHT22;7347;50.844;4.490;2022-11-15T11:17:37;13.00;99.90
14521;DHT22;7347;50.844;4.490;2022-11-15T11:20:10;12.90;99.90
14521;DHT22;7347;50.844;4.490;2022-11-15T11:22:58;12.90;99.90
14521;DHT22;7347;50.844;4.490;2022-11-15T11:25:32;13.00;99.90
14521;DHT22;7347;50.844;4.490;2022-11-15T11:28:23;13.00;99.90
14521;DHT22;7347;50.844;4.490;2022-11-15T11:31:00;13.10;99.90
14521;DHT22;7347;50.844;4.490;2022-11-15T11:33:37;13.10;99.90
14521;DHT22;7347;50.844;4.490;2022-11-15T11:36:16;13.30;99.90
14521;DHT22;7347;50.844;4.490;2022-11-15T11:39:00;13.40;99.90
14521;DHT22;7347;50.844;4.490;2022-11-15T11:41:48;13.30;99.90
14521;DHT22;7347;50.844;4.490;2022-11-15T11:44:28;13.40;99.90
14521;DHT22;7347;50.844;4.490;2022-11-15T11:47:00;13.50;99.90
14521;DHT22;7347;50.844;4.490;2022-11-15T11:49:33;13.70;99.90
14521;DHT22;7347;50.844;4.490;2022-11-15T11:52:06;13.70;99.90
14521;DHT22;7347;50.844;4.490;2022-11-15T11:54:45;13.60;99.90
14521;DHT22;7347;50.844;4.490;2022-11-15T11:57:18;13.70;99.90
14521;DHT22;7347;50.844;4.490;2022-11-15T11:59:53;13.70;99.90
14521;DHT22;7347;50.844;4.490;2022-11-15T12:02:27;13.70;99.90
14521;DHT22;7347;50.844;4.490;2022-11-15T12:05:01;13.80;99.90
14521;DHT22;7347;50.844;4.490;2022-11-15T12:07:32;13.70;99.90
14521;DHT22;7347;50.844;4.490;2022-11-15T12:10:04;13.70;99.90
14521;DHT22;7347;50.844;4.490;2022-11-15T12:12:36;13.80;99.90
14521;DHT22;7347;50.844;4.490;2022-11-15T12:15:12;13.70;99.90
14521;DHT22;7347;50.844;4.490;2022-11-15T12:17:41;13.70;99.90
14521;DHT22;7347;50.844;4.490;2022-11-15T12:20:15;13.60;99.90
14521;DHT22;7347;50.844;4.490;2022-11-15T12:22:44;13.70;99.90
14521;DHT22;7347;50.844;4.490;2022-11-15T12:25:19;13.70;99.90
14521;DHT22;7347;50.844;4.490;2022-11-15T12:27:50;13.60;99.90
14521;DHT22;7347;50.844;4.490;2022-11-15T12:30:21;13.60;99.90
14521;DHT22;7347;50.844;4.490;2022-11-15T12:32:51;13.60;99.90
14521;DHT22;7347;50.844;4.490;2022-11-15T12:35:24;13.60;99.90
14521;DHT22;7347;50.844;4.490;2022-11-15T12:37:52;13.70;99.90
14521;DHT22;7347;50.844;4.490;2022-11-15T12:40:34;13.70;99.90
14521;DHT22;7347;50.844;4.490;2022-11-15T12:43:35;13.70;99.90
14521;DHT22;7347;50.844;4.490;2022-11-15T12:46:06;13.70;99.90
14521;DHT22;7347;50.844;4.490;2022-11-15T12:48:49;13.60;99.90
14521;DHT22;7347;50.844;4.490;2022-11-15T12:51:18;13.50;99.90
14521;DHT22;7347;50.844;4.490;2022-11-15T12:53:46;13.60;99.90
14521;DHT22;7347;50.844;4.490;2022-11-15T12:56:32;13.60;99.90
14521;DHT22;7347;50.844;4.490;2022-11-15T12:59:00;13.70;99.90
14521;DHT22;7347;50.844;4.490;2022-11-15T13:04:33;13.80;99.90
14521;DHT22;7347;50.844;4.490;2022-11-15T13:07:01;14.00;99.90
14521;DHT22;7347;50.844;4.490;2022-11-15T13:09:54;14.00;99.90
14521;DHT22;7347;50.844;4.490;2022-11-15T13:12:52;14.10;99.90
14521;DHT22;7347;50.844;4.490;2022-11-15T13:15:53;14.30;99.90
14521;DHT22;7347;50.844;4.490;2022-11-15T13:18:36;14.50;99.90
14521;DHT22;7347;50.844;4.490;2022-11-15T13:21:17;14.50;99.90
14521;DHT22;7347;50.844;4.490;2022-11-15T13:24:02;14.30;99.90
14521;DHT22;7347;50.844;4.490;2022-11-15T13:26:31;14.30;99.90
14521;DHT22;7347;50.844;4.490;2022-11-15T13:28:59;14.10;99.90
14521;DHT22;7347;50.844;4.490;2022-11-15T13:31:34;14.00;99.90
14521;DHT22;7347;50.844;4.490;2022-11-15T13:34:03;13.80;99.90
14521;DHT22;7347;50.844;4.490;2022-11-15T13:36:40;13.80;99.90
14521;DHT22;7347;50.844;4.490;2022-11-15T13:39:23;13.80;99.90
14521;DHT22;7347;50.844;4.490;2022-11-15T13:41:52;13.90;99.90
14521;DHT22;7347;50.844;4.490;2022-11-15T13:44:22;14.00;99.90
14521;DHT22;7347;50.844;4.490;2022-11-15T13:46:49;14.00;99.90
14521;DHT22;7347;50.844;4.490;2022-11-15T13:49:29;14.00;99.90
14521;DHT22;7347;50.844;4.490;2022-11-15T13:51:56;14.00;99.90
14521;DHT22;7347;50.844;4.490;2022-11-15T13:54:26;14.00;99.90
14521;DHT22;7347;50.844;4.490;2022-11-15T13:56:57;14.00;99.90
14521;DHT22;7347;50.844;4.490;2022-11-15T13:59:28;13.90;99.90
14521;DHT22;7347;50.844;4.490;2022-11-15T14:01:58;14.00;99.90
14521;DHT22;7347;50.844;4.490;2022-11-15T14:04:28;14.00;99.90
14521;DHT22;7347;50.844;4.490;2022-11-15T14:06:59;14.00;99.90
14521;DHT22;7347;50.844;4.490;2022-11-15T14:09:36;14.10;99.90
14521;DHT22;7347;50.844;4.490;2022-11-15T14:12:23;14.00;99.90
14521;DHT22;7347;50.844;4.490;2022-11-15T14:14:52;14.00;99.90
14521;DHT22;7347;50.844;4.490;2022-11-15T14:17:21;14.00;99.90
14521;DHT22;7347;50.844;4.490;2022-11-15T14:19:49;14.00;99.90
14521;DHT22;7347;50.844;4.490;2022-11-15T14:22:20;14.00;99.90
14521;DHT22;7347;50.844;4.490;2022-11-15T14:25:12;13.90;99.90
14521;DHT22;7347;50.844;4.490;2022-11-15T14:27:40;13.80;99.90
14521;DHT22;7347;50.844;4.490;2022-11-15T14:30:13;13.80;99.90
14521;DHT22;7347;50.844;4.490;2022-11-15T14:32:44;13.70;99.90
14521;DHT22;7347;50.844;4.490;2022-11-15T14:35:15;13.60;99.90
14521;DHT22;7347;50.844;4.490;2022-11-15T14:37:42;13.60;99.90
14521;DHT22;7347;50.844;4.490;2022-11-15T14:40:14;13.60;99.90
14521;DHT22;7347;50.844;4.490;2022-11-15T14:42:41;13.60;99.90
14521;DHT22;7347;50.844;4.490;2022-11-15T14:45:12;13.60;99.90
14521;DHT22;7347;50.844;4.490;2022-11-15T14:47:39;13.60;99.90
14521;DHT22;7347;50.844;4.490;2022-11-15T14:50:11;13.60;99.90
14521;DHT22;7347;50.844;4.490;2022-11-15T14:52:38;13.60;99.90
14521;DHT22;7347;50.844;4.490;2022-11-15T14:55:14;13.60;99.90
14521;DHT22;7347;50.844;4.490;2022-11-15T14:57:41;13.60;99.90
14521;DHT22;7347;50.844;4.490;2022-11-15T15:00:09;13.50;99.90
14521;DHT22;7347;50.844;4.490;2022-11-15T15:02:37;13.50;99.90
14521;DHT22;7347;50.844;4.490;2022-11-15T15:05:14;13.50;99.90
14521;DHT22;7347;50.844;4.490;2022-11-15T15:07:41;13.60;99.90
14521;DHT22;7347;50.844;4.490;2022-11-15T15:10:08;13.60;99.90
14521;DHT22;7347;50.844;4.490;2022-11-15T15:12:35;13.50;99.90
14521;DHT22;7347;50.844;4.490;2022-11-15T15:15:02;13.50;99.90
14521;DHT22;7347;50.844;4.490;2022-11-15T15:17:29;13.40;99.90
14521;DHT22;7347;50.844;4.490;2022-11-15T15:19:57;13.50;99.90
14521;DHT22;7347;50.844;4.490;2022-11-15T15:22:26;13.40;99.90
14521;DHT22;7347;50.844;4.490;2022-11-15T15:24:54;13.40;99.90
14521;DHT22;7347;50.844;4.490;2022-11-15T15:27:21;13.30;99.90
14521;DHT22;7347;50.844;4.490;2022-11-15T15:29:48;13.10;99.90
14521;DHT22;7347;50.844;4.490;2022-11-15T15:32:15;13.00;99.90
14521;DHT22;7347;50.844;4.490;2022-11-15T15:34:42;13.10;99.90
14521;DHT22;7347;50.844;4.490;2022-11-15T15:37:21;13.00;99.90
14521;DHT22;7347;50.844;4.490;2022-11-15T15:39:49;12.90;99.90
14521;DHT22;7347;50.844;4.490;2022-11-15T15:42:16;12.90;99.90
14521;DHT22;7347;50.844;4.490;2022-11-15T15:44:42;12.80;99.90
14521;DHT22;7347;50.844;4.490;2022-11-15T15:47:11;12.70;99.90
14521;DHT22;7347;50.844;4.490;2022-11-15T15:49:38;12.60;99.90
14521;DHT22;7347;50.844;4.490;2022-11-15T15:52:05;12.70;99.90
14521;DHT22;7347;50.844;4.490;2022-11-15T15:54:33;12.70;99.90
14521;DHT22;7347;50.844;4.490;2022-11-15T15:57:00;12.70;99.90
14521;DHT22;7347;50.844;4.490;2022-11-15T15:59:27;12.60;99.90
14521;DHT22;7347;50.844;4.490;2022-11-15T16:01:53;12.70;99.90
14521;DHT22;7347;50.844;4.490;2022-11-15T16:04:20;12.60;99.90
14521;DHT22;7347;50.844;4.490;2022-11-15T16:06:47;12.70;99.90
14521;DHT22;7347;50.844;4.490;2022-11-15T16:09:17;12.60;99.90
14521;DHT22;7347;50.844;4.490;2022-11-15T16:11:45;12.60;99.90
14521;DHT22;7347;50.844;4.490;2022-11-15T16:14:13;12.60;99.90
14521;DHT22;7347;50.844;4.490;2022-11-15T16:16:39;12.60;99.90
14521;DHT22;7347;50.844;4.490;2022-11-15T16:19:07;12.60;99.90
14521;DHT22;7347;50.844;4.490;2022-11-15T16:21:35;12.60;99.90
14521;DHT22;7347;50.844;4.490;2022-11-15T16:24:02;12.60;99.90
14521;DHT22;7347;50.844;4.490;2022-11-15T16:26:30;12.60;99.90
14521;DHT22;7347;50.844;4.490;2022-11-15T16:28:58;12.50;99.90
14521;DHT22;7347;50.844;4.490;2022-11-15T16:31:25;12.50;99.90
14521;DHT22;7347;50.844;4.490;2022-11-15T16:33:51;12.50;99.90
14521;DHT22;7347;50.844;4.490;2022-11-15T16:36:20;12.60;99.90
14521;DHT22;7347;50.844;4.490;2022-11-15T16:38:47;12.40;99.90
14521;DHT22;7347;50.844;4.490;2022-11-15T16:41:15;12.40;99.90
14521;DHT22;7347;50.844;4.490;2022-11-15T16:43:44;12.40;99.90
14521;DHT22;7347;50.844;4.490;2022-11-15T16:46:16;12.40;99.90
14521;DHT22;7347;50.844;4.490;2022-11-15T16:48:44;12.40;99.90
14521;DHT22;7347;50.844;4.490;2022-11-15T16:51:11;12.40;99.90
14521;DHT22;7347;50.844;4.490;2022-11-15T16:53:38;12.40;99.90
14521;DHT22;7347;50.844;4.490;2022-11-15T16:56:18;12.40;99.90
14521;DHT22;7347;50.844;4.490;2022-11-15T16:58:45;12.40;99.90
14521;DHT22;7347;50.844;4.490;2022-11-15T17:01:18;12.40;99.90
14521;DHT22;7347;50.844;4.490;2022-11-15T17:03:45;12.30;99.90
14521;DHT22;7347;50.844;4.490;2022-11-15T17:06:12;12.40;99.90
14521;DHT22;7347;50.844;4.490;2022-11-15T17:08:40;12.40;99.90
14521;DHT22;7347;50.844;4.490;2022-11-15T17:11:07;12.50;99.90
14521;DHT22;7347;50.844;4.490;2022-11-15T17:13:34;12.60;99.90
14521;DHT22;7347;50.844;4.490;2022-11-15T17:16:05;12.60;99.90
14521;DHT22;7347;50.844;4.490;2022-11-15T17:18:34;12.50;99.90
14521;DHT22;7347;50.844;4.490;2022-11-15T17:21:06;12.50;99.90
14521;DHT22;7347;50.844;4.490;2022-11-15T17:23:32;12.50;99.90
14521;DHT22;7347;50.844;4.490;2022-11-15T17:26:00;12.50;99.90
14521;DHT22;7347;50.844;4.490;2022-11-15T17:28:28;12.40;99.90
14521;DHT22;7347;50.844;4.490;2022-11-15T17:30:55;12.50;99.90
14521;DHT22;7347;50.844;4.490;2022-11-15T17:33:23;12.50;99.90
14521;DHT22;7347;50.844;4.490;2022-11-15T17:35:56;12.60;99.90
14521;DHT22;7347;50.844;4.490;2022-11-15T17:38:23;12.60;99.90
14521;DHT22;7347;50.844;4.490;2022-11-15T17:40:59;12.50;99.90
14521;DHT22;7347;50.844;4.490;2022-11-15T17:43:27;12.50;99.90
14521;DHT22;7347;50.844;4.490;2022-11-15T17:45:54;12.40;99.90
14521;DHT22;7347;50.844;4.490;2022-11-15T17:48:21;12.40;99.90
14521;DHT22;7347;50.844;4.490;2022-11-15T17:50:56;12.40;99.90
14521;DHT22;7347;50.844;4.490;2022-11-15T17:53:24;12.40;99.90
14521;DHT22;7347;50.844;4.490;2022-11-15T17:55:51;12.50;99.90
14521;DHT22;7347;50.844;4.490;2022-11-15T17:58:18;12.40;99.90
14521;DHT22;7347;50.844;4.490;2022-11-15T18:00:46;12.40;99.90
14521;DHT22;7347;50.844;4.490;2022-11-15T18:03:13;12.50;99.90
14521;DHT22;7347;50.844;4.490;2022-11-15T18:05:40;12.50;99.90
14521;DHT22;7347;50.844;4.490;2022-11-15T18:08:09;12.40;99.90
14521;DHT22;7347;50.844;4.490;2022-11-15T18:10:37;12.40;99.90
14521;DHT22;7347;50.844;4.490;2022-11-15T18:13:04;12.50;99.90
14521;DHT22;7347;50.844;4.490;2022-11-15T18:15:31;12.50;99.90
14521;DHT22;7347;50.844;4.490;2022-11-15T18:17:58;12.40;99.90
14521;DHT22;7347;50.844;4.490;2022-11-15T18:20:25;12.50;99.90
14521;DHT22;7347;50.844;4.490;2022-11-15T18:22:52;12.50;99.90
14521;DHT22;7347;50.844;4.490;2022-11-15T18:25:20;12.60;99.90
14521;DHT22;7347;50.844;4.490;2022-11-15T18:27:49;12.60;99.90
14521;DHT22;7347;50.844;4.490;2022-11-15T18:30:20;12.60;99.90
14521;DHT22;7347;50.844;4.490;2022-11-15T18:32:46;12.60;99.90
14521;DHT22;7347;50.844;4.490;2022-11-15T18:35:13;12.50;99.90
14521;DHT22;7347;50.844;4.490;2022-11-15T18:37:40;12.50;99.90
14521;DHT22;7347;50.844;4.490;2022-11-15T18:40:08;12.60;99.90
14521;DHT22;7347;50.844;4.490;2022-11-15T18:42:36;12.60;99.90
14521;DHT22;7347;50.844;4.490;2022-11-15T18:45:03;12.60;99.90
14521;DHT22;7347;50.844;4.490;2022-11-15T18:47:30;12.60;99.90
14521;DHT22;7347;50.844;4.490;2022-11-15T18:49:57;12.60;99.90
14521;DHT22;7347;50.844;4.490;2022-11-15T18:52:24;12.60;99.90
14521;DHT22;7347;50.844;4.490;2022-11-15T18:54:51;12.50;99.90
14521;DHT22;7347;50.844;4.490;2022-11-15T18:57:18;12.50;99.90
14521;DHT22;7347;50.844;4.490;2022-11-15T18:59:46;12.60;99.90
14521;DHT22;7347;50.844;4.490;2022-11-15T19:02:13;12.60;99.90
14521;DHT22;7347;50.844;4.490;2022-11-15T19:04:39;12.60;99.90
14521;DHT22;7347;50.844;4.490;2022-11-15T19:07:06;12.60;99.90
14521;DHT22;7347;50.844;4.490;2022-11-15T19:09:33;12.50;99.90
14521;DHT22;7347;50.844;4.490;2022-11-15T19:12:00;12.60;99.90
14521;DHT22;7347;50.844;4.490;2022-11-15T19:14:27;12.50;99.90
14521;DHT22;7347;50.844;4.490;2022-11-15T19:16:55;12.50;99.90
14521;DHT22;7347;50.844;4.490;2022-11-15T19:19:24;12.60;99.90
14521;DHT22;7347;50.844;4.490;2022-11-15T19:21:53;12.50;99.90
14521;DHT22;7347;50.844;4.490;2022-11-15T19:24:21;12.50;99.90
14521;DHT22;7347;50.844;4.490;2022-11-15T19:26:48;12.50;99.90
14521;DHT22;7347;50.844;4.490;2022-11-15T19:29:15;12.50;99.90
14521;DHT22;7347;50.844;4.490;2022-11-15T19:31:42;12.60;99.90
14521;DHT22;7347;50.844;4.490;2022-11-15T19:34:10;12.60;99.90
14521;DHT22;7347;50.844;4.490;2022-11-15T19:36:39;12.60;99.90
14521;DHT22;7347;50.844;4.490;2022-11-15T19:39:07;12.60;99.90
14521;DHT22;7347;50.844;4.490;2022-11-15T19:41:37;12.60;99.90
14521;DHT22;7347;50.844;4.490;2022-11-15T19:44:04;12.60;99.90
14521;DHT22;7347;50.844;4.490;2022-11-15T19:46:32;12.60;99.90
14521;DHT22;7347;50.844;4.490;2022-11-15T19:48:59;12.70;99.90
14521;DHT22;7347;50.844;4.490;2022-11-15T19:51:28;12.60;99.90
14521;DHT22;7347;50.844;4.490;2022-11-15T19:53:57;12.60;99.90
14521;DHT22;7347;50.844;4.490;2022-11-15T19:56:26;12.60;99.90
14521;DHT22;7347;50.844;4.490;2022-11-15T19:58:54;12.60;99.90
14521;DHT22;7347;50.844;4.490;2022-11-15T20:01:23;12.70;99.90
14521;DHT22;7347;50.844;4.490;2022-11-15T20:03:51;12.70;99.90
14521;DHT22;7347;50.844;4.490;2022-11-15T20:06:20;12.70;99.90
14521;DHT22;7347;50.844;4.490;2022-11-15T20:08:49;12.70;99.90
14521;DHT22;7347;50.844;4.490;2022-11-15T20:11:16;12.70;99.90
14521;DHT22;7347;50.844;4.490;2022-11-15T20:13:44;12.70;99.90
14521;DHT22;7347;50.844;4.490;2022-11-15T20:16:15;12.70;99.90
14521;DHT22;7347;50.844;4.490;2022-11-15T20:18:42;12.60;99.90
14521;DHT22;7347;50.844;4.490;2022-11-15T20:21:09;12.60;99.90
14521;DHT22;7347;50.844;4.490;2022-11-15T20:23:36;12.70;99.90
14521;DHT22;7347;50.844;4.490;2022-11-15T20:26:05;12.70;99.90
14521;DHT22;7347;50.844;4.490;2022-11-15T20:28:32;12.60;99.90
14521;DHT22;7347;50.844;4.490;2022-11-15T20:31:01;12.70;99.90
14521;DHT22;7347;50.844;4.490;2022-11-15T20:33:28;12.70;99.90
14521;DHT22;7347;50.844;4.490;2022-11-15T20:35:55;12.70;99.90
14521;DHT22;7347;50.844;4.490;2022-11-15T20:38:22;12.70;99.90
14521;DHT22;7347;50.844;4.490;2022-11-15T20:40:50;12.70;99.90
14521;DHT22;7347;50.844;4.490;2022-11-15T20:43:19;12.80;99.90
14521;DHT22;7347;50.844;4.490;2022-11-15T20:45:47;12.80;99.90
14521;DHT22;7347;50.844;4.490;2022-11-15T20:48:15;12.90;99.90
14521;DHT22;7347;50.844;4.490;2022-11-15T20:50:43;12.90;99.90
14521;DHT22;7347;50.844;4.490;2022-11-15T20:53:11;12.90;99.90
14521;DHT22;7347;50.844;4.490;2022-11-15T20:55:38;12.90;99.90
14521;DHT22;7347;50.844;4.490;2022-11-15T20:58:06;12.90;99.90
14521;DHT22;7347;50.844;4.490;2022-11-15T21:00:35;12.90;99.90
14521;DHT22;7347;50.844;4.490;2022-11-15T21:03:03;12.80;99.90
14521;DHT22;7347;50.844;4.490;2022-11-15T21:05:32;12.80;99.90
14521;DHT22;7347;50.844;4.490;2022-11-15T21:07:59;12.90;99.90
14521;DHT22;7347;50.844;4.490;2022-11-15T21:10:26;12.90;99.90
14521;DHT22;7347;50.844;4.490;2022-11-15T21:13:10;12.90;99.90
14521;DHT22;7347;50.844;4.490;2022-11-15T21:15:38;12.90;99.90
14521;DHT22;7347;50.844;4.490;2022-11-15T21:18:05;12.70;99.90
14521;DHT22;7347;50.844;4.490;2022-11-15T21:20:32;12.70;99.90
14521;DHT22;7347;50.844;4.490;2022-11-15T21:22:59;12.70;99.90
14521;DHT22;7347;50.844;4.490;2022-11-15T21:25:25;12.70;99.90
14521;DHT22;7347;50.844;4.490;2022-11-15T21:27:52;12.60;99.90
14521;DHT22;7347;50.844;4.490;2022-11-15T21:30:19;12.60;99.90
14521;DHT22;7347;50.844;4.490;2022-11-15T21:32:47;12.70;99.90
14521;DHT22;7347;50.844;4.490;2022-11-15T21:35:14;12.70;99.90
14521;DHT22;7347;50.844;4.490;2022-11-15T21:37:41;12.70;99.90
14521;DHT22;7347;50.844;4.490;2022-11-15T21:40:09;12.70;99.90
14521;DHT22;7347;50.844;4.490;2022-11-15T21:42:36;12.70;99.90
14521;DHT22;7347;50.844;4.490;2022-11-15T21:45:03;12.70;99.90
14521;DHT22;7347;50.844;4.490;2022-11-15T21:47:30;12.70;99.90
14521;DHT22;7347;50.844;4.490;2022-11-15T21:49:58;12.80;99.90
14521;DHT22;7347;50.844;4.490;2022-11-15T21:52:25;12.70;99.90
14521;DHT22;7347;50.844;4.490;2022-11-15T21:54:52;12.70;99.90
14521;DHT22;7347;50.844;4.490;2022-11-15T21:57:19;12.80;99.90
14521;DHT22;7347;50.844;4.490;2022-11-15T21:59:45;12.70;99.90
14521;DHT22;7347;50.844;4.490;2022-11-15T22:02:29;12.80;99.90
14521;DHT22;7347;50.844;4.490;2022-11-15T22:04:57;12.70;99.90
14521;DHT22;7347;50.844;4.490;2022-11-15T22:07:24;12.80;99.90
14521;DHT22;7347;50.844;4.490;2022-11-15T22:09:51;12.80;99.90
14521;DHT22;7347;50.844;4.490;2022-11-15T22:12:18;12.80;99.90
14521;DHT22;7347;50.844;4.490;2022-11-15T22:14:45;12.80;99.90
